Data for 07/25/2009

Time Sea-Level Adjusted Pressure Absolute Pressure Temperature Relative Humidity Dew Point   
(mb) (inHg) (mb) (inHg) (C) (F) (%) (C) (F)
00:05 1023 30.21 852 25.16 15.8 60.5 67 9.8 49.6
00:10 1023 30.21 852 25.16 15.7 60.2 69 10.1 50.1
00:15 1023 30.21 852 25.16 15.5 59.8 70 10 50
00:20 1023 30.21 852 25.16 15.3 59.6 70 9.9 49.9
00:25 1023 30.21 852 25.16 15.4 59.7 69 9.8 49.7
00:30 1023 30.21 852 25.16 15.6 60 71 10.4 50.7
00:35 1023 30.21 852 25.16 15.5 59.9 72 10.6 51
00:40 1022 30.18 852 25.16 15.4 59.6 71 10.2 50.4
00:45 1022 30.18 851 25.13 15.6 60.1 69 10.1 50.1
00:50 1022 30.18 851 25.13 15.7 60.2 69 10.1 50.3
00:55 1022 30.18 851 25.13 15.7 60.3 70 10.3 50.5
01:00 1022 30.18 851 25.13 15.3 59.5 73 10.6 51
01:05 1022 30.18 851 25.13 14.9 58.8 74 10.4 50.7
01:10 1022 30.18 851 25.13 14.5 58.1 76 10.3 50.5
01:15 1022 30.18 851 25.13 14.5 58.1 73 9.8 49.7
01:20 1022 30.18 851 25.13 14.7 58.5 74 10.1 50.2
01:25 1022 30.18 851 25.13 14.7 58.4 74 10.2 50.4
01:30 1021 30.15 851 25.13 14.9 58.8 73 10.1 50.1
01:35 1021 30.15 851 25.13 14.8 58.6 74 10.2 50.3
01:40 1021 30.15 851 25.13 14.6 58.3 74 10.1 50.1
01:45 1021 30.15 851 25.13 14.6 58.3 73 9.9 49.8
01:50 1021 30.15 851 25.13 14.8 58.6 72 9.8 49.7
01:55 1021 30.15 851 25.13 15 58.9 71 9.8 49.7
02:00 1021 30.15 851 25.13 15 59 71 9.8 49.6
02:05 1021 30.15 851 25.13 15.2 59.4 70 9.7 49.5
02:10 1021 30.15 851 25.13 15.4 59.7 69 9.7 49.5
02:15 1021 30.15 851 25.13 15.6 60 67 9.5 49.2
02:20 1021 30.15 851 25.13 15.7 60.3 67 9.6 49.4
02:25 1021 30.15 851 25.13 15.7 60.2 68 9.8 49.7
02:30 1022 30.18 851 25.13 15.5 60 68 9.7 49.4
02:35 1022 30.18 851 25.13 15.7 60.3 66 9.4 49
02:40 1022 30.18 851 25.13 15.7 60.3 66 9.6 49.2
02:45 1022 30.18 851 25.13 15.7 60.3 68 10 50
02:50 1022 30.18 851 25.13 15.4 59.7 71 10.1 50.2
02:55 1022 30.18 851 25.13 15.1 59.1 72 10.1 50.2
03:00 1022 30.18 851 25.13 14.9 58.8 73 10.2 50.3
03:05 1022 30.18 851 25.13 14.7 58.4 73 10 50.1
03:10 1022 30.18 851 25.13 14.7 58.4 74 10.1 50.1
03:15 1022 30.18 851 25.13 14.7 58.4 74 10.1 50.2
03:20 1022 30.18 851 25.13 14.6 58.2 75 10.1 50.2
03:25 1022 30.18 851 25.13 14.5 58.1 74 10 50
03:30 1022 30.18 851 25.13 14.6 58.3 74 10.1 50.1
03:35 1022 30.18 851 25.13 14.5 58.2 75 10.1 50.2
03:40 1022 30.18 851 25.13 14.4 57.9 75 9.9 49.9
03:45 1022 30.18 851 25.13 14.4 57.9 75 10 49.9
03:50 1022 30.18 851 25.13 14.3 57.8 74 9.8 49.7
03:55 1022 30.18 851 25.13 14.3 57.7 75 10 49.9
04:00 1022 30.18 851 25.13 13.8 56.8 80 10.4 50.7
04:05 1022 30.18 851 25.13 13 55.4 81 9.8 49.7
04:10 1022 30.18 851 25.13 12.8 55 81 9.7 49.4
04:15 1022 30.18 851 25.13 13.3 55.9 77 9.3 48.8
04:20 1022 30.18 851 25.13 14.1 57.3 73 9.3 48.8
04:25 1022 30.18 851 25.13 13.9 57.1 76 9.7 49.5
04:30 1022 30.18 851 25.13 13.2 55.8 79 9.6 49.4
04:35 1022 30.18 851 25.13 13.1 55.6 78 9.4 48.9
04:40 1022 30.18 851 25.13 13.5 56.2 76 9.3 48.7
04:45 1022 30.18 851 25.13 13.9 57.1 74 9.5 49
04:50 1022 30.18 851 25.13 13.9 57 74 9.4 48.9
04:55 1022 30.18 851 25.13 13.8 56.9 76 9.6 49.3
05:00 1022 30.18 851 25.13 13.6 56.4 77 9.6 49.3
05:05 1022 30.18 851 25.13 13.4 56.2 77 9.5 49.1
05:10 1022 30.18 851 25.13 13.4 56.1 77 9.4 49
05:15 1022 30.18 852 25.16 13.4 56 77 9.4 49
05:20 1022 30.18 852 25.16 13.3 55.9 77 9.3 48.7
05:25 1022 30.18 852 25.16 13.4 56 77 9.5 49
05:30 1023 30.21 852 25.16 13.3 55.9 77 9.3 48.8
05:35 1023 30.21 852 25.16 13.3 55.9 77 9.3 48.8
05:40 1023 30.21 852 25.16 13.2 55.8 77 9.4 48.9
05:45 1023 30.21 852 25.16 13.1 55.7 78 9.4 48.8
05:50 1023 30.21 852 25.16 13 55.4 78 9.3 48.7
05:55 1023 30.21 852 25.16 13.1 55.6 77 9.3 48.7
06:00 1023 30.21 852 25.16 13.2 55.8 77 9.3 48.8
06:05 1023 30.21 852 25.16 13.1 55.5 78 9.4 48.9
06:10 1023 30.21 852 25.16 12.8 55 79 9.2 48.6
06:15 1023 30.21 852 25.16 12.6 54.7 80 9.2 48.6
06:20 1023 30.21 852 25.16 12.4 54.4 80 9.1 48.3
06:25 1023 30.21 852 25.16 12.7 54.9 78 9 48.2
06:30 1023 30.21 852 25.16 13 55.4 77 9.1 48.3
06:35 1023 30.21 852 25.16 13.2 55.8 76 9.1 48.4
06:40 1023 30.21 852 25.16 13.4 56.2 75 9 48.3
06:45 1023 30.21 852 25.16 13.7 56.7 74 9.2 48.5
06:50 1023 30.21 852 25.16 13.7 56.7 74 9.2 48.6
06:55 1023 30.21 852 25.16 13.8 56.8 74 9.3 48.7
07:00 1023 30.21 852 25.16 13.7 56.7 74 9.3 48.7
07:05 1023 30.21 852 25.16 13.8 56.8 74 9.4 48.9
07:10 1023 30.21 852 25.16 14.1 57.3 73 9.3 48.8
07:15 1023 30.21 852 25.16 14.2 57.5 74 9.6 49.2
07:20 1023 30.21 853 25.19 14.1 57.4 73 9.4 48.9
07:25 1023 30.21 853 25.19 14.3 57.8 72 9.3 48.8
07:30 1023 30.21 853 25.19 14.6 58.2 72 9.6 49.2
07:35 1023 30.21 853 25.19 14.8 58.6 72 9.7 49.5
07:40 1023 30.21 853 25.19 15.2 59.3 70 9.8 49.7
07:45 1023 30.21 853 25.19 15.9 60.5 68 10 50
07:50 1023 30.21 852 25.16 16.2 61.1 66 9.9 49.9
07:55 1023 30.21 853 25.19 16.3 61.3 67 10.2 50.4
08:00 1023 30.21 852 25.16 16.4 61.6 66 10.1 50.2
08:05 1023 30.21 852 25.16 16.9 62.4 65 10.2 50.4
08:10 1023 30.21 852 25.16 17 62.5 64 10.2 50.3
08:15 1023 30.21 853 25.19 16.9 62.4 64 10.2 50.3
08:20 1023 30.21 853 25.19 17.1 62.7 64 10.2 50.3
08:25 1023 30.21 853 25.19 17.6 63.7 61 10.1 50.2
08:30 1023 30.21 853 25.19 18.1 64.5 61 10.6 51.1
08:35 1023 30.21 853 25.19 18.4 65.2 59 10.5 50.9
08:40 1023 30.21 853 25.19 18.8 65.8 59 10.6 51
08:45 1023 30.21 853 25.19 18.8 65.9 57 10.2 50.4
08:50 1023 30.21 853 25.19 19.5 67.1 54 10.1 50.2
08:55 1023 30.21 853 25.19 20.2 68.3 53 10.3 50.5
09:00 1023 30.21 853 25.19 20.7 69.2 53 10.9 51.5
09:05 1023 30.21 853 25.19 21 69.8 48 9.8 49.7
09:10 1023 30.21 853 25.19 21.4 70.6 47 9.7 49.4
09:15 1023 30.21 853 25.19 21.3 70.3 49 10.2 50.4
09:20 1023 30.21 853 25.19 21.3 70.3 48 10 50
09:25 1023 30.21 853 25.19 21.8 71.2 48 10.6 51.1
09:30 1023 30.21 853 25.19 21.9 71.5 48 10.6 51
09:35 1023 30.21 853 25.19 22.2 72 49 11.1 52
09:40 1023 30.21 853 25.19 22.3 72.2 49 11.4 52.5
09:45 1023 30.21 853 25.19 21.5 70.8 52 11.4 52.6
09:50 1023 30.21 853 25.19 20.8 69.5 53 11.1 51.9
09:55 1023 30.21 853 25.19 21.1 70 50 10.5 50.8
10:00 1023 30.21 853 25.19 22.2 71.9 47 10.4 50.8
10:05 1023 30.21 853 25.19 22.7 72.8 46 10.5 51
10:10 1023 30.21 853 25.19 22.6 72.7 47 11 51.9
10:15 1023 30.21 853 25.19 23.5 74.3 44 10.6 51.1
10:20 1024 30.24 853 25.19 23.1 73.6 45 10.7 51.3
10:25 1023 30.21 853 25.19 22.6 72.7 46 10.7 51.3
10:30 1023 30.21 853 25.19 22 71.6 48 10.8 51.4
10:35 1023 30.21 853 25.19 22.4 72.3 46 10.3 50.6
10:40 1023 30.21 853 25.19 23.5 74.3 42 10.1 50.2
10:45 1023 30.21 853 25.19 24 75.1 43 10.8 51.4
10:50 1023 30.21 853 25.19 24.3 75.8 41 10.3 50.5
10:55 1023 30.21 853 25.19 24.9 76.8 41 10.8 51.4
11:00 1023 30.21 853 25.19 25.4 77.6 38 10.4 50.7
11:05 1023 30.21 853 25.19 24.5 76.1 44 11.5 52.7
11:10 1023 30.21 853 25.19 23.8 74.8 43 10.8 51.4
11:15 1023 30.21 853 25.19 24.3 75.7 41 10.5 50.8
11:20 1023 30.21 853 25.19 24.6 76.2 43 11.5 52.7
11:25 1023 30.21 853 25.19 24.2 75.5 43 11.1 51.9
11:30 1023 30.21 853 25.19 24.4 76 42 10.9 51.6
11:35 1023 30.21 853 25.19 24.9 76.8 41 10.9 51.6
11:40 1023 30.21 853 25.19 25.2 77.4 41 11.4 52.5
11:45 1023 30.21 853 25.19 25.4 77.7 40 11.1 52.1
11:50 1023 30.21 853 25.19 25.5 77.8 40 11.3 52.3
11:55 1023 30.21 853 25.19 26.1 78.9 41 12.2 53.9
12:00 1023 30.21 853 25.19 26 78.8 40 11.7 53.1
12:05 1023 30.21 853 25.19 25.7 78.2 41 11.6 52.8
12:10 1023 30.21 853 25.19 26.4 79.6 39 11.6 53
12:15 1023 30.21 853 25.19 26.3 79.4 38 11.1 52
12:20 1023 30.21 852 25.16 26.3 79.3 38 11 51.8
12:25 1023 30.21 852 25.16 26.3 79.4 39 11.5 52.7
12:30 1023 30.21 852 25.16 25.5 77.9 39 10.6 51
12:35 1023 30.21 852 25.16 27.2 80.9 35 10.8 51.5
12:40 1023 30.21 852 25.16 27.3 81.1 35 10.7 51.3
12:45 1023 30.21 852 25.16 26.9 80.3 38 11.5 52.8
12:50 1023 30.21 852 25.16 26.6 79.9 36 10.5 50.9
12:55 1023 30.21 852 25.16 27.3 81.2 36 11.1 52
13:00 1023 30.21 852 25.16 27.3 81.2 35 11 51.8
13:05 1023 30.21 852 25.16 27.9 82.2 36 11.5 52.7
13:10 1023 30.21 852 25.16 27 80.5 37 11.2 52.2
13:15 1023 30.21 852 25.16 26.7 80.1 38 11.5 52.7
13:20 1023 30.21 852 25.16 27.4 81.4 34 10.3 50.5
13:25 1023 30.21 852 25.16 28.2 82.8 33 10.9 51.6
13:30 1023 30.21 852 25.16 28.8 83.8 32 10.7 51.2
13:35 1023 30.21 852 25.16 29.5 85.1 31 11 51.9
13:40 1023 30.21 852 25.16 28.5 83.2 33 11.1 52
13:45 1023 30.21 852 25.16 28.8 83.8 32 10.6 51
13:50 1022 30.18 852 25.16 29 84.1 32 10.8 51.4
13:55 1022 30.18 852 25.16 29.3 84.8 29 9.9 49.8
14:00 1022 30.18 852 25.16 30.5 86.9 28 10.5 50.9
14:05 1022 30.18 852 25.16 30.6 87 28 10.3 50.6
14:10 1022 30.18 852 25.16 30.5 86.9 28 10.3 50.5
14:15 1022 30.18 851 25.13 30.6 87.1 29 11 51.9
14:20 1022 30.18 851 25.13 30.3 86.5 27 9.8 49.6
14:25 1022 30.18 851 25.13 30.6 87 26 9.4 48.9
14:30 1022 30.18 851 25.13 31.4 88.5 25 9.2 48.6
14:35 1022 30.18 851 25.13 30.9 87.7 25 9.1 48.4
14:40 1022 30.18 851 25.13 31.3 88.3 26 9.8 49.6
14:45 1022 30.18 851 25.13 31.2 88.2 27 10.6 51.1
14:50 1022 30.18 851 25.13 29.9 85.9 30 10.7 51.2
14:55 1022 30.18 851 25.13 29.7 85.5 29 10.2 50.3
15:00 1022 30.18 851 25.13 30 86 28 9.6 49.3
15:05 1022 30.18 851 25.13 30.3 86.6 28 10.1 50.1
15:10 1022 30.18 851 25.13 30.9 87.6 28 10.7 51.3
15:15 1022 30.18 851 25.13 31.1 87.9 27 10.3 50.6
15:20 1022 30.18 851 25.13 30.7 87.2 28 10.5 50.9
15:25 1022 30.18 851 25.13 31.2 88.2 28 10.7 51.3
15:30 1022 30.18 851 25.13 31.2 88.2 27 10.1 50.3
15:35 1022 30.18 851 25.13 31.6 88.8 27 10.7 51.3
15:40 1022 30.18 851 25.13 31.6 88.8 28 11 51.8
15:45 1022 30.18 851 25.13 32.2 90 26 10.9 51.5
15:50 1022 30.18 851 25.13 31.8 89.3 23 8.3 47
15:55 1022 30.18 851 25.13 31.4 88.6 22 7.2 45
16:00 1022 30.18 851 25.13 30.7 87.2 25 8.5 47.4
16:05 1022 30.18 851 25.13 29.9 85.7 26 8.8 47.8
16:10 1022 30.18 851 25.13 29.9 85.8 26 8.5 47.2
16:15 1022 30.18 851 25.13 29.9 85.8 26 8.8 47.9
16:20 1022 30.18 851 25.13 29.6 85.2 28 9.3 48.8
16:25 1022 30.18 851 25.13 29.1 84.4 32 10.9 51.6
16:30 1022 30.18 851 25.13 28.7 83.7 29 9 48.2
16:35 1022 30.18 851 25.13 28.6 83.5 28 8.6 47.5
16:40 1022 30.18 851 25.13 28.6 83.5 28 8.8 47.9
16:45 1022 30.18 851 25.13 28.6 83.5 27 8.2 46.7
16:50 1022 30.18 851 25.13 28.9 84.1 28 8.7 47.7
16:55 1022 30.18 851 25.13 28.7 83.6 28 8.9 48
17:00 1022 30.18 851 25.13 28.4 83.2 28 8.5 47.4
17:05 1022 30.18 851 25.13 28.5 83.4 27 7.9 46.1
17:10 1022 30.18 851 25.13 28.5 83.3 26 7.7 45.9
17:15 1022 30.18 851 25.13 28.4 83.1 25 6.9 44.5
17:20 1022 30.18 851 25.13 28.5 83.4 25 7.1 44.7
17:25 1022 30.18 851 25.13 28.6 83.4 27 7.9 46.3
17:30 1022 30.18 852 25.16 28.7 83.6 26 7.4 45.3
17:35 1023 30.21 852 25.16 28.6 83.4 26 7.3 45.2
17:40 1023 30.21 853 25.19 28.5 83.3 26 7.5 45.4
17:45 1024 30.24 853 25.19 26.2 79.2 31 7.9 46.2
17:50 1024 30.24 853 25.19 24.4 75.9 33 7.4 45.2
17:55 1024 30.24 853 25.19 23.2 73.8 38 8.4 47.2
18:00 1024 30.24 854 25.22 21.6 70.9 44 9.1 48.4
18:05 1025 30.27 854 25.22 20.8 69.5 57 12.2 54
18:10 1025 30.27 854 25.22 19.5 67.1 63 12.5 54.4
18:15 1025 30.27 854 25.22 18.1 64.6 72 13 55.4
18:20 1025 30.27 855 25.25 17.4 63.3 73 12.5 54.5
18:25 1026 30.3 855 25.25 17.6 63.7 73 12.8 55
18:30 1026 30.3 855 25.25 17.3 63.2 80 13.8 56.9
18:35 1026 30.3 855 25.25 16.6 61.8 80 13.1 55.6
18:40 1026 30.3 855 25.25 16.7 62.1 78 12.9 55.3
18:45 1026 30.3 855 25.25 17 62.5 73 12.2 54
18:50 1025 30.27 855 25.25 17.3 63.2 70 11.9 53.4
18:55 1025 30.27 855 25.25 17.5 63.6 74 12.8 55.1
19:00 1025 30.27 854 25.22 17.7 63.8 68 11.8 53.2
19:05 1025 30.27 854 25.22 18.1 64.6 71 12.8 55
19:10 1025 30.27 854 25.22 18.1 64.6 71 12.8 55.1
19:15 1025 30.27 854 25.22 18.5 65.4 69 12.9 55.2
19:20 1025 30.27 854 25.22 18.9 66 68 12.8 55.1
19:25 1025 30.27 854 25.22 19.3 66.7 57 10.6 51.1
19:30 1025 30.27 854 25.22 19.9 67.8 58 11.4 52.6
19:35 1025 30.27 854 25.22 20.1 68.1 57 11.4 52.5
19:40 1025 30.27 854 25.22 19.9 67.9 71 14.5 58.2
19:45 1025 30.27 854 25.22 18.6 65.4 75 14.1 57.4
19:50 1025 30.27 854 25.22 18.2 64.8 66 11.9 53.5
19:55 1025 30.27 854 25.22 19.1 66.4 64 12.2 53.9
20:00 1024 30.24 854 25.22 18.9 65.9 69 13.1 55.6
20:05 1024 30.24 854 25.22 18.4 65.2 69 12.6 54.8
20:10 1024 30.24 854 25.22 18.4 65 68 12.5 54.4
20:15 1024 30.24 853 25.19 18.2 64.8 70 12.7 54.9
20:20 1024 30.24 853 25.19 18.1 64.5 68 12.2 54
20:25 1024 30.24 853 25.19 18.1 64.6 67 12 53.5
20:30 1024 30.24 853 25.19 18.3 64.9 67 12.1 53.8
20:35 1024 30.24 853 25.19 18.1 64.6 72 13 55.4
20:40 1024 30.24 853 25.19 17.7 63.9 72 12.6 54.6
20:45 1024 30.24 853 25.19 17.6 63.6 70 12.2 54
20:50 1024 30.24 853 25.19 17.4 63.3 72 12.3 54.2
20:55 1024 30.24 853 25.19 17.3 63.1 71 12 53.7
21:00 1024 30.24 853 25.19 17.3 63.1 70 11.8 53.2
21:05 1024 30.24 853 25.19 17.3 63.1 69 11.5 52.7
21:10 1024 30.24 853 25.19 17.1 62.8 70 11.8 53.2
21:15 1024 30.24 853 25.19 16.9 62.3 71 11.5 52.8
21:20 1024 30.24 853 25.19 16.8 62.2 71 11.5 52.8
21:25 1024 30.24 853 25.19 16.8 62.2 70 11.4 52.4
21:30 1024 30.24 853 25.19 16.7 62.1 70 11.4 52.5
21:35 1024 30.24 853 25.19 16.7 62.1 68 10.9 51.7
21:40 1024 30.24 853 25.19 16.8 62.3 68 10.9 51.6
21:45 1024 30.24 853 25.19 16.8 62.2 67 10.7 51.2
21:50 1024 30.24 853 25.19 16.9 62.4 65 10.3 50.6
21:55 1024 30.24 853 25.19 17 62.7 62 9.8 49.7
22:00 1024 30.24 853 25.19 17.3 63.2 61 9.9 49.7
22:05 1024 30.24 853 25.19 17.4 63.3 61 9.9 49.8
22:10 1024 30.24 853 25.19 17.3 63.2 64 10.6 51.1
22:15 1024 30.24 853 25.19 16.9 62.4 63 9.9 49.9
22:20 1024 30.24 853 25.19 16.8 62.3 64 10.1 50.2
22:25 1024 30.24 853 25.19 16.9 62.3 63 9.9 49.8
22:30 1024 30.24 853 25.19 16.7 62.1 65 10.1 50.3
22:35 1024 30.24 854 25.22 16.5 61.8 66 10.1 50.3
22:40 1025 30.27 854 25.22 16.3 61.4 64 9.5 49.2
22:45 1025 30.27 854 25.22 16.4 61.6 62 9.2 48.5
22:50 1025 30.27 854 25.22 16.7 62 61 9.1 48.4
22:55 1025 30.27 854 25.22 16.8 62.2 59 8.7 47.7
23:00 1025 30.27 854 25.22 17.1 62.9 57 8.6 47.4
23:05 1025 30.27 854 25.22 17.3 63.2 57 8.7 47.7
23:10 1025 30.27 854 25.22 17.3 63.1 57 8.8 47.9
23:15 1025 30.27 854 25.22 17.4 63.3 55 8.4 47.2
23:20 1025 30.27 854 25.22 17.7 63.8 55 8.6 47.4
23:25 1025 30.27 854 25.22 17.9 64.2 53 8.4 47.1
23:30 1025 30.27 854 25.22 17.9 64.3 53 8.4 47.2
23:35 1025 30.27 854 25.22 17.8 64.1 54 8.4 47.1
23:40 1025 30.27 854 25.22 17.7 63.9 54 8.4 47
23:45 1025 30.27 854 25.22 17.7 63.8 54 8.4 47.1
23:50 1025 30.27 854 25.22 17.5 63.6 55 8.4 47.2
23:55 1025 30.27 854 25.22 17.5 63.4 53 7.9 46.2
24:00 1025 30.27 854 25.22 17.8 64.1 52 8 46.4